sensor_id;sensor_type;location;lat;lon;timestamp;temperature;humidity
21267;DHT22;10791;53.108;18.326;2022-07-06T00:01:50;14.10;99.90
21267;DHT22;10791;53.108;18.326;2022-07-06T00:06:54;13.90;99.90
21267;DHT22;10791;53.108;18.326;2022-07-06T00:12:00;13.80;99.90
21267;DHT22;10791;53.108;18.326;2022-07-06T00:17:03;13.70;99.90
21267;DHT22;10791;53.108;18.326;2022-07-06T00:22:07;13.70;99.90
21267;DHT22;10791;53.108;18.326;2022-07-06T00:27:13;13.70;99.90
21267;DHT22;10791;53.108;18.326;2022-07-06T00:32:17;13.70;99.90
21267;DHT22;10791;53.108;18.326;2022-07-06T00:37:20;13.70;99.90
21267;DHT22;10791;53.108;18.326;2022-07-06T00:42:23;13.70;99.90
21267;DHT22;10791;53.108;18.326;2022-07-06T00:47:27;13.60;99.90
21267;DHT22;10791;53.108;18.326;2022-07-06T00:52:30;13.60;99.90
21267;DHT22;10791;53.108;18.326;2022-07-06T00:57:37;13.60;99.90
21267;DHT22;10791;53.108;18.326;2022-07-06T01:02:41;13.60;99.90
21267;DHT22;10791;53.108;18.326;2022-07-06T01:07:52;13.60;99.90
21267;DHT22;10791;53.108;18.326;2022-07-06T01:12:57;13.60;99.90
21267;DHT22;10791;53.108;18.326;2022-07-06T01:18:01;13.60;99.90
21267;DHT22;10791;53.108;18.326;2022-07-06T01:23:05;13.50;99.90
21267;DHT22;10791;53.108;18.326;2022-07-06T01:28:08;13.50;99.90
21267;DHT22;10791;53.108;18.326;2022-07-06T01:33:12;13.50;99.90
21267;DHT22;10791;53.108;18.326;2022-07-06T01:38:18;13.50;99.90
21267;DHT22;10791;53.108;18.326;2022-07-06T01:43:22;13.50;99.90
21267;DHT22;10791;53.108;18.326;2022-07-06T01:48:25;13.40;99.90
21267;DHT22;10791;53.108;18.326;2022-07-06T01:53:28;13.40;99.90
21267;DHT22;10791;53.108;18.326;2022-07-06T01:58:32;13.40;99.90
21267;DHT22;10791;53.108;18.326;2022-07-06T02:03:38;13.30;99.90
21267;DHT22;10791;53.108;18.326;2022-07-06T02:08:42;13.20;99.90
21267;DHT22;10791;53.108;18.326;2022-07-06T02:13:45;13.10;99.90
21267;DHT22;10791;53.108;18.326;2022-07-06T02:18:49;13.10;99.90
21267;DHT22;10791;53.108;18.326;2022-07-06T02:23:52;13.10;99.90
21267;DHT22;10791;53.108;18.326;2022-07-06T02:28:56;13.00;99.90
21267;DHT22;10791;53.108;18.326;2022-07-06T02:33:59;12.90;99.90
21267;DHT22;10791;53.108;18.326;2022-07-06T02:39:03;12.80;99.90
21267;DHT22;10791;53.108;18.326;2022-07-06T02:44:06;12.80;99.90
21267;DHT22;10791;53.108;18.326;2022-07-06T02:49:09;12.80;99.90
21267;DHT22;10791;53.108;18.326;2022-07-06T02:54:12;12.80;99.90
21267;DHT22;10791;53.108;18.326;2022-07-06T02:59:15;12.90;99.90
21267;DHT22;10791;53.108;18.326;2022-07-06T03:04:22;12.90;99.90
21267;DHT22;10791;53.108;18.326;2022-07-06T03:09:26;13.00;99.90
21267;DHT22;10791;53.108;18.326;2022-07-06T03:14:31;13.10;99.90
21267;DHT22;10791;53.108;18.326;2022-07-06T03:19:37;13.10;99.90
21267;DHT22;10791;53.108;18.326;2022-07-06T03:24:40;13.10;99.90
21267;DHT22;10791;53.108;18.326;2022-07-06T03:29:47;13.20;99.90
21267;DHT22;10791;53.108;18.326;2022-07-06T03:34:50;13.30;99.90
21267;DHT22;10791;53.108;18.326;2022-07-06T03:39:53;13.40;99.90
21267;DHT22;10791;53.108;18.326;2022-07-06T03:44:57;13.50;99.90
21267;DHT22;10791;53.108;18.326;2022-07-06T03:50:05;13.80;99.90
21267;DHT22;10791;53.108;18.326;2022-07-06T03:55:10;14.20;99.90
21267;DHT22;10791;53.108;18.326;2022-07-06T04:00:14;14.70;99.90
21267;DHT22;10791;53.108;18.326;2022-07-06T04:05:17;15.20;99.90
21267;DHT22;10791;53.108;18.326;2022-07-06T04:10:24;16.40;99.90
21267;DHT22;10791;53.108;18.326;2022-07-06T04:15:27;17.20;99.90
21267;DHT22;10791;53.108;18.326;2022-07-06T04:20:30;17.90;99.90
21267;DHT22;10791;53.108;18.326;2022-07-06T04:25:36;18.60;99.90
21267;DHT22;10791;53.108;18.326;2022-07-06T04:30:39;19.20;99.90
21267;DHT22;10791;53.108;18.326;2022-07-06T04:35:42;20.20;99.90
21267;DHT22;10791;53.108;18.326;2022-07-06T04:40:51;21.30;99.90
21267;DHT22;10791;53.108;18.326;2022-07-06T04:45:54;21.70;99.90
21267;DHT22;10791;53.108;18.326;2022-07-06T04:50:58;22.20;99.90
21267;DHT22;10791;53.108;18.326;2022-07-06T04:56:01;22.60;99.90
21267;DHT22;10791;53.108;18.326;2022-07-06T05:01:05;23.10;99.90
21267;DHT22;10791;53.108;18.326;2022-07-06T05:06:08;23.00;99.90
21267;DHT22;10791;53.108;18.326;2022-07-06T05:11:12;22.60;99.90
21267;DHT22;10791;53.108;18.326;2022-07-06T05:16:15;22.60;99.90
21267;DHT22;10791;53.108;18.326;2022-07-06T05:21:20;22.20;99.90
21267;DHT22;10791;53.108;18.326;2022-07-06T05:26:25;21.60;99.90
21267;DHT22;10791;53.108;18.326;2022-07-06T05:31:29;21.10;99.90
21267;DHT22;10791;53.108;18.326;2022-07-06T05:36:38;20.70;99.90
21267;DHT22;10791;53.108;18.326;2022-07-06T05:41:42;20.40;99.90
21267;DHT22;10791;53.108;18.326;2022-07-06T05:46:45;20.20;99.90
21267;DHT22;10791;53.108;18.326;2022-07-06T05:51:51;20.00;99.90
21267;DHT22;10791;53.108;18.326;2022-07-06T05:56:56;20.00;99.90
21267;DHT22;10791;53.108;18.326;2022-07-06T06:02:02;20.20;99.90
21267;DHT22;10791;53.108;18.326;2022-07-06T06:07:06;20.30;99.90
21267;DHT22;10791;53.108;18.326;2022-07-06T06:12:14;20.10;99.90
21267;DHT22;10791;53.108;18.326;2022-07-06T06:17:26;20.10;99.90
21267;DHT22;10791;53.108;18.326;2022-07-06T06:22:50;20.20;99.90
21267;DHT22;10791;53.108;18.326;2022-07-06T06:27:54;20.30;99.90
21267;DHT22;10791;53.108;18.326;2022-07-06T06:33:09;20.40;99.90
21267;DHT22;10791;53.108;18.326;2022-07-06T06:38:16;20.50;99.90
21267;DHT22;10791;53.108;18.326;2022-07-06T06:43:21;20.70;99.90
21267;DHT22;10791;53.108;18.326;2022-07-06T06:48:30;20.90;99.60
21267;DHT22;10791;53.108;18.326;2022-07-06T06:53:34;20.90;99.30
21267;DHT22;10791;53.108;18.326;2022-07-06T06:58:41;21.00;99.90
21267;DHT22;10791;53.108;18.326;2022-07-06T07:04:04;21.30;98.90
21267;DHT22;10791;53.108;18.326;2022-07-06T07:09:09;21.10;96.20
21267;DHT22;10791;53.108;18.326;2022-07-06T07:14:12;20.90;95.90
21267;DHT22;10791;53.108;18.326;2022-07-06T07:19:16;21.00;95.50
21267;DHT22;10791;53.108;18.326;2022-07-06T07:24:19;21.10;95.00
21267;DHT22;10791;53.108;18.326;2022-07-06T07:29:22;21.50;96.40
21267;DHT22;10791;53.108;18.326;2022-07-06T07:34:28;21.50;95.70
21267;DHT22;10791;53.108;18.326;2022-07-06T07:39:31;21.10;96.20
21267;DHT22;10791;53.108;18.326;2022-07-06T07:44:37;20.80;97.00
21267;DHT22;10791;53.108;18.326;2022-07-06T07:49:41;20.60;96.10
21267;DHT22;10791;53.108;18.326;2022-07-06T07:54:45;20.40;96.50
21267;DHT22;10791;53.108;18.326;2022-07-06T08:00:05;20.30;96.20
21267;DHT22;10791;53.108;18.326;2022-07-06T08:05:08;20.50;96.60
21267;DHT22;10791;53.108;18.326;2022-07-06T08:10:16;20.60;97.20
21267;DHT22;10791;53.108;18.326;2022-07-06T08:15:19;20.60;96.20
21267;DHT22;10791;53.108;18.326;2022-07-06T08:20:23;20.80;97.80
21267;DHT22;10791;53.108;18.326;2022-07-06T08:25:30;20.80;95.40
21267;DHT22;10791;53.108;18.326;2022-07-06T08:30:33;21.10;97.00
21267;DHT22;10791;53.108;18.326;2022-07-06T08:35:37;21.50;95.60
21267;DHT22;10791;53.108;18.326;2022-07-06T08:40:47;21.60;94.90
21267;DHT22;10791;53.108;18.326;2022-07-06T08:45:53;21.80;93.00
21267;DHT22;10791;53.108;18.326;2022-07-06T08:50:59;22.10;92.50
21267;DHT22;10791;53.108;18.326;2022-07-06T08:56:02;22.00;87.10
21267;DHT22;10791;53.108;18.326;2022-07-06T09:01:11;22.20;90.60
21267;DHT22;10791;53.108;18.326;2022-07-06T09:06:25;22.20;83.50
21267;DHT22;10791;53.108;18.326;2022-07-06T09:11:28;22.00;85.20
21267;DHT22;10791;53.108;18.326;2022-07-06T09:16:32;22.20;85.00
21267;DHT22;10791;53.108;18.326;2022-07-06T09:21:40;22.50;84.10
21267;DHT22;10791;53.108;18.326;2022-07-06T09:26:45;22.80;80.70
21267;DHT22;10791;53.108;18.326;2022-07-06T09:32:00;22.80;79.00
21267;DHT22;10791;53.108;18.326;2022-07-06T09:37:06;22.90;78.90
21267;DHT22;10791;53.108;18.326;2022-07-06T09:42:10;22.50;75.70
21267;DHT22;10791;53.108;18.326;2022-07-06T09:47:16;22.20;78.10
21267;DHT22;10791;53.108;18.326;2022-07-06T09:52:19;22.30;81.70
21267;DHT22;10791;53.108;18.326;2022-07-06T09:57:23;22.70;80.70
21267;DHT22;10791;53.108;18.326;2022-07-06T10:02:29;23.20;80.80
21267;DHT22;10791;53.108;18.326;2022-07-06T10:07:33;23.20;77.40
21267;DHT22;10791;53.108;18.326;2022-07-06T10:12:37;23.10;74.40
21267;DHT22;10791;53.108;18.326;2022-07-06T10:17:41;23.30;75.10
21267;DHT22;10791;53.108;18.326;2022-07-06T10:22:48;23.60;76.30
21267;DHT22;10791;53.108;18.326;2022-07-06T10:27:52;23.30;73.60
21267;DHT22;10791;53.108;18.326;2022-07-06T10:32:58;22.70;72.20
21267;DHT22;10791;53.108;18.326;2022-07-06T10:38:07;22.30;74.00
21267;DHT22;10791;53.108;18.326;2022-07-06T10:43:11;22.30;75.80
21267;DHT22;10791;53.108;18.326;2022-07-06T10:48:18;22.10;75.30
21267;DHT22;10791;53.108;18.326;2022-07-06T10:53:25;21.90;78.50
21267;DHT22;10791;53.108;18.326;2022-07-06T10:58:46;21.70;78.30
21267;DHT22;10791;53.108;18.326;2022-07-06T11:04:07;21.80;78.50
21267;DHT22;10791;53.108;18.326;2022-07-06T11:09:11;21.90;78.00
21267;DHT22;10791;53.108;18.326;2022-07-06T11:14:17;21.70;79.10
21267;DHT22;10791;53.108;18.326;2022-07-06T11:19:24;21.80;78.90
21267;DHT22;10791;53.108;18.326;2022-07-06T11:24:30;21.80;77.50
21267;DHT22;10791;53.108;18.326;2022-07-06T11:29:35;21.50;76.60
21267;DHT22;10791;53.108;18.326;2022-07-06T11:34:44;21.20;77.60
21267;DHT22;10791;53.108;18.326;2022-07-06T11:39:49;21.40;75.80
21267;DHT22;10791;53.108;18.326;2022-07-06T11:44:53;21.80;73.20
21267;DHT22;10791;53.108;18.326;2022-07-06T11:49:57;22.30;73.10
21267;DHT22;10791;53.108;18.326;2022-07-06T11:55:00;22.60;72.50
21267;DHT22;10791;53.108;18.326;2022-07-06T12:00:05;22.90;73.10
21267;DHT22;10791;53.108;18.326;2022-07-06T12:05:08;22.40;73.70
21267;DHT22;10791;53.108;18.326;2022-07-06T12:10:12;21.80;78.80
21267;DHT22;10791;53.108;18.326;2022-07-06T12:15:15;21.30;78.00
21267;DHT22;10791;53.108;18.326;2022-07-06T12:20:19;20.90;77.60
21267;DHT22;10791;53.108;18.326;2022-07-06T12:25:36;20.50;75.90
21267;DHT22;10791;53.108;18.326;2022-07-06T12:30:45;20.30;75.30
21267;DHT22;10791;53.108;18.326;2022-07-06T12:35:49;20.10;76.60
21267;DHT22;10791;53.108;18.326;2022-07-06T12:40:53;20.10;78.00
21267;DHT22;10791;53.108;18.326;2022-07-06T12:45:56;20.20;76.80
21267;DHT22;10791;53.108;18.326;2022-07-06T12:51:02;20.30;78.60
21267;DHT22;10791;53.108;18.326;2022-07-06T12:56:10;20.50;80.20
21267;DHT22;10791;53.108;18.326;2022-07-06T13:01:17;20.70;77.70
21267;DHT22;10791;53.108;18.326;2022-07-06T13:06:31;20.80;77.90
21267;DHT22;10791;53.108;18.326;2022-07-06T13:11:36;21.20;82.20
21267;DHT22;10791;53.108;18.326;2022-07-06T13:16:40;22.10;77.20
21267;DHT22;10791;53.108;18.326;2022-07-06T13:21:46;22.80;66.10
21267;DHT22;10791;53.108;18.326;2022-07-06T13:26:50;23.20;66.00
21267;DHT22;10791;53.108;18.326;2022-07-06T13:31:56;23.20;63.60
21267;DHT22;10791;53.108;18.326;2022-07-06T13:37:04;23.10;62.50
21267;DHT22;10791;53.108;18.326;2022-07-06T13:42:08;23.20;63.10
21267;DHT22;10791;53.108;18.326;2022-07-06T13:47:15;23.10;62.20
21267;DHT22;10791;53.108;18.326;2022-07-06T13:52:19;22.80;63.40
21267;DHT22;10791;53.108;18.326;2022-07-06T13:57:22;22.90;64.80
21267;DHT22;10791;53.108;18.326;2022-07-06T14:02:25;22.80;63.00
21267;DHT22;10791;53.108;18.326;2022-07-06T14:07:29;22.60;63.40
21267;DHT22;10791;53.108;18.326;2022-07-06T14:12:33;22.70;64.00
21267;DHT22;10791;53.108;18.326;2022-07-06T14:17:37;22.70;64.70
21267;DHT22;10791;53.108;18.326;2022-07-06T14:22:41;22.60;62.90
21267;DHT22;10791;53.108;18.326;2022-07-06T14:27:44;22.30;63.80
21267;DHT22;10791;53.108;18.326;2022-07-06T14:32:47;22.40;65.50
21267;DHT22;10791;53.108;18.326;2022-07-06T14:37:51;22.10;63.60
21267;DHT22;10791;53.108;18.326;2022-07-06T14:42:54;21.90;64.30
21267;DHT22;10791;53.108;18.326;2022-07-06T14:47:58;22.00;66.00
21267;DHT22;10791;53.108;18.326;2022-07-06T14:53:05;22.10;67.40
21267;DHT22;10791;53.108;18.326;2022-07-06T14:58:08;22.10;67.80
21267;DHT22;10791;53.108;18.326;2022-07-06T15:03:13;21.80;70.20
21267;DHT22;10791;53.108;18.326;2022-07-06T15:08:17;21.80;71.80
21267;DHT22;10791;53.108;18.326;2022-07-06T15:13:21;21.70;73.00
21267;DHT22;10791;53.108;18.326;2022-07-06T15:18:28;21.90;72.00
21267;DHT22;10791;53.108;18.326;2022-07-06T15:23:31;21.90;74.10
21267;DHT22;10791;53.108;18.326;2022-07-06T15:28:34;21.90;73.40
21267;DHT22;10791;53.108;18.326;2022-07-06T15:33:38;21.50;73.60
21267;DHT22;10791;53.108;18.326;2022-07-06T15:38:41;21.10;73.70
21267;DHT22;10791;53.108;18.326;2022-07-06T15:43:55;21.30;73.10
21267;DHT22;10791;53.108;18.326;2022-07-06T15:48:58;21.70;69.50
21267;DHT22;10791;53.108;18.326;2022-07-06T15:54:02;22.20;65.60
21267;DHT22;10791;53.108;18.326;2022-07-06T15:59:10;21.90;68.80
21267;DHT22;10791;53.108;18.326;2022-07-06T16:04:17;21.10;70.90
21267;DHT22;10791;53.108;18.326;2022-07-06T16:09:20;20.50;74.40
21267;DHT22;10791;53.108;18.326;2022-07-06T16:14:24;20.50;73.90
21267;DHT22;10791;53.108;18.326;2022-07-06T16:19:29;20.70;72.80
21267;DHT22;10791;53.108;18.326;2022-07-06T16:24:33;20.90;73.40
21267;DHT22;10791;53.108;18.326;2022-07-06T16:29:36;20.70;74.70
21267;DHT22;10791;53.108;18.326;2022-07-06T16:34:40;20.70;76.60
21267;DHT22;10791;53.108;18.326;2022-07-06T16:39:44;21.50;74.00
21267;DHT22;10791;53.108;18.326;2022-07-06T16:44:47;22.20;71.30
21267;DHT22;10791;53.108;18.326;2022-07-06T16:49:53;21.50;72.50
21267;DHT22;10791;53.108;18.326;2022-07-06T16:54:56;20.70;74.10
21267;DHT22;10791;53.108;18.326;2022-07-06T17:00:03;20.40;72.50
21267;DHT22;10791;53.108;18.326;2022-07-06T17:05:07;20.20;74.20
21267;DHT22;10791;53.108;18.326;2022-07-06T17:10:14;20.00;75.50
21267;DHT22;10791;53.108;18.326;2022-07-06T17:15:18;19.80;77.00
21267;DHT22;10791;53.108;18.326;2022-07-06T17:20:23;19.40;79.70
21267;DHT22;10791;53.108;18.326;2022-07-06T17:25:26;19.20;81.80
21267;DHT22;10791;53.108;18.326;2022-07-06T17:30:30;19.00;84.20
21267;DHT22;10791;53.108;18.326;2022-07-06T17:35:41;18.90;87.40
21267;DHT22;10791;53.108;18.326;2022-07-06T17:40:48;18.70;88.90
21267;DHT22;10791;53.108;18.326;2022-07-06T17:45:56;18.70;90.90
21267;DHT22;10791;53.108;18.326;2022-07-06T17:51:01;18.60;91.50
21267;DHT22;10791;53.108;18.326;2022-07-06T17:56:08;18.70;92.50
21267;DHT22;10791;53.108;18.326;2022-07-06T18:01:12;18.50;93.10
21267;DHT22;10791;53.108;18.326;2022-07-06T18:06:16;18.30;93.70
21267;DHT22;10791;53.108;18.326;2022-07-06T18:11:19;18.10;93.70
21267;DHT22;10791;53.108;18.326;2022-07-06T18:16:23;18.10;94.60
21267;DHT22;10791;53.108;18.326;2022-07-06T18:21:29;17.90;94.80
21267;DHT22;10791;53.108;18.326;2022-07-06T18:26:33;17.80;95.70
21267;DHT22;10791;53.108;18.326;2022-07-06T18:31:37;17.70;96.70
21267;DHT22;10791;53.108;18.326;2022-07-06T18:36:41;17.50;95.40
21267;DHT22;10791;53.108;18.326;2022-07-06T18:41:46;17.30;95.50
21267;DHT22;10791;53.108;18.326;2022-07-06T18:46:55;17.20;97.00
21267;DHT22;10791;53.108;18.326;2022-07-06T18:51:59;17.00;97.40
21267;DHT22;10791;53.108;18.326;2022-07-06T18:57:03;16.90;98.70
21267;DHT22;10791;53.108;18.326;2022-07-06T19:02:07;16.70;99.90
21267;DHT22;10791;53.108;18.326;2022-07-06T19:07:11;16.70;99.90
21267;DHT22;10791;53.108;18.326;2022-07-06T19:12:14;16.50;99.90
21267;DHT22;10791;53.108;18.326;2022-07-06T19:17:18;16.40;99.90
21267;DHT22;10791;53.108;18.326;2022-07-06T19:22:22;16.30;99.90
21267;DHT22;10791;53.108;18.326;2022-07-06T19:27:25;16.20;99.90
21267;DHT22;10791;53.108;18.326;2022-07-06T19:32:30;16.00;99.90
21267;DHT22;10791;53.108;18.326;2022-07-06T19:37:33;15.90;99.90
21267;DHT22;10791;53.108;18.326;2022-07-06T19:42:39;15.70;99.90
21267;DHT22;10791;53.108;18.326;2022-07-06T19:47:49;15.60;99.90
21267;DHT22;10791;53.108;18.326;2022-07-06T19:52:53;15.40;99.90
21267;DHT22;10791;53.108;18.326;2022-07-06T19:57:57;15.40;99.90
21267;DHT22;10791;53.108;18.326;2022-07-06T20:03:02;15.30;99.90
21267;DHT22;10791;53.108;18.326;2022-07-06T20:08:06;15.20;99.90
21267;DHT22;10791;53.108;18.326;2022-07-06T20:13:10;15.10;99.90
21267;DHT22;10791;53.108;18.326;2022-07-06T20:18:15;15.00;99.90
21267;DHT22;10791;53.108;18.326;2022-07-06T20:23:19;14.90;99.90
21267;DHT22;10791;53.108;18.326;2022-07-06T20:28:26;14.90;99.90
21267;DHT22;10791;53.108;18.326;2022-07-06T20:33:31;14.90;99.90
21267;DHT22;10791;53.108;18.326;2022-07-06T20:38:35;14.90;99.90
21267;DHT22;10791;53.108;18.326;2022-07-06T20:43:40;14.90;99.90
21267;DHT22;10791;53.108;18.326;2022-07-06T20:48:51;15.00;99.90
21267;DHT22;10791;53.108;18.326;2022-07-06T20:53:58;15.00;99.90
21267;DHT22;10791;53.108;18.326;2022-07-06T20:59:02;15.00;99.90
21267;DHT22;10791;53.108;18.326;2022-07-06T21:04:15;15.00;99.90
21267;DHT22;10791;53.108;18.326;2022-07-06T21:09:19;14.90;99.90
21267;DHT22;10791;53.108;18.326;2022-07-06T21:14:24;14.90;99.90
21267;DHT22;10791;53.108;18.326;2022-07-06T21:19:27;14.90;99.90
21267;DHT22;10791;53.108;18.326;2022-07-06T21:24:31;14.90;99.90
21267;DHT22;10791;53.108;18.326;2022-07-06T21:29:35;14.90;99.90
21267;DHT22;10791;53.108;18.326;2022-07-06T21:34:39;14.80;99.90
21267;DHT22;10791;53.108;18.326;2022-07-06T21:39:42;14.70;99.90
21267;DHT22;10791;53.108;18.326;2022-07-06T21:44:46;14.60;99.90
21267;DHT22;10791;53.108;18.326;2022-07-06T21:49:50;14.50;99.90
21267;DHT22;10791;53.108;18.326;2022-07-06T21:54:53;14.30;99.90
21267;DHT22;10791;53.108;18.326;2022-07-06T21:59:57;14.20;99.90
21267;DHT22;10791;53.108;18.326;2022-07-06T22:05:01;14.10;99.90
21267;DHT22;10791;53.108;18.326;2022-07-06T22:10:10;13.90;99.90
21267;DHT22;10791;53.108;18.326;2022-07-06T22:15:13;13.70;99.90
21267;DHT22;10791;53.108;18.326;2022-07-06T22:20:18;13.50;99.90
21267;DHT22;10791;53.108;18.326;2022-07-06T22:25:22;13.50;99.90
21267;DHT22;10791;53.108;18.326;2022-07-06T22:30:25;13.40;99.90
21267;DHT22;10791;53.108;18.326;2022-07-06T22:35:29;13.30;99.90
21267;DHT22;10791;53.108;18.326;2022-07-06T22:40:32;13.20;99.90
21267;DHT22;10791;53.108;18.326;2022-07-06T22:45:55;13.20;99.90
21267;DHT22;10791;53.108;18.326;2022-07-06T22:50:59;13.10;99.90
21267;DHT22;10791;53.108;18.326;2022-07-06T22:56:03;13.00;99.90
21267;DHT22;10791;53.108;18.326;2022-07-06T23:01:07;12.90;99.90
21267;DHT22;10791;53.108;18.326;2022-07-06T23:06:11;12.90;99.90
21267;DHT22;10791;53.108;18.326;2022-07-06T23:11:15;12.90;99.90
21267;DHT22;10791;53.108;18.326;2022-07-06T23:16:19;12.90;99.90
21267;DHT22;10791;53.108;18.326;2022-07-06T23:21:22;13.00;99.90
21267;DHT22;10791;53.108;18.326;2022-07-06T23:26:28;13.00;99.90
21267;DHT22;10791;53.108;18.326;2022-07-06T23:31:32;13.10;99.90
21267;DHT22;10791;53.108;18.326;2022-07-06T23:36:35;13.20;99.90
21267;DHT22;10791;53.108;18.326;2022-07-06T23:41:38;13.30;99.90
21267;DHT22;10791;53.108;18.326;2022-07-06T23:46:42;13.40;99.90
21267;DHT22;10791;53.108;18.326;2022-07-06T23:51:45;13.40;99.90
21267;DHT22;10791;53.108;18.326;2022-07-06T23:56:49;13.50;99.90
